Duiven, Netherlands
Current Conditions -  °F | °C
As of 12:55 AM on Thursday 29 Jan 2015 (Local Time) from EHDL Reporting Station
Scattered Clouds Scattered Clouds  
Wind Chill: 28°   Ceiling: Unl
Heat Index: 36°   Visibility: 6mi
Dew Point: 28°   Wind: 12mph
Humidity: 75%   Direction: 240°WSW
Pressure: 29.38"   Gusts: NA
Location:  51.95°N, 6.01°E
Report Text: EHDL 282355Z AUTO 24010KT 9999 FEW038 SCT045 02/M02 Q0995 BLU
Loading
Personal Weather Stations






























Interactive Weather Map New forecast layout! Learn more

10-Day Weather Forecast

Advertisements
Track Severe Weather on mobile